sensor_id;sensor_type;location;lat;lon;timestamp;pressure;altitude;pressure_sealevel;temperature;humidity
30463;BME280;17256;43.618;25.336;2023-07-22T00:00:08;99993.09;;;26.66;61.05
30463;BME280;17256;43.618;25.336;2023-07-22T00:02:37;100376.88;;;27.13;62.25
30463;BME280;17256;43.618;25.336;2023-07-22T00:05:04;100300.16;;;26.88;66.15
30463;BME280;17256;43.618;25.336;2023-07-22T00:07:29;100364.41;;;27.77;66.80
30463;BME280;17256;43.618;25.336;2023-07-22T00:09:55;100224.47;;;26.46;66.22
30463;BME280;17256;43.618;25.336;2023-07-22T00:12:20;100199.13;;;26.59;65.72
30463;BME280;17256;43.618;25.336;2023-07-22T00:14:51;100285.03;;;26.84;66.60
30463;BME280;17256;43.618;25.336;2023-07-22T00:17:21;100447.63;;;27.52;72.19
30463;BME280;17256;43.618;25.336;2023-07-22T00:19:47;100400.66;;;26.79;77.57
30463;BME280;17256;43.618;25.336;2023-07-22T00:22:14;100330.78;;;26.21;82.52
30463;BME280;17256;43.618;25.336;2023-07-22T00:24:41;100395.16;;;26.28;86.26
30463;BME280;17256;43.618;25.336;2023-07-22T00:27:06;100271.97;;;25.22;89.79
30463;BME280;17256;43.618;25.336;2023-07-22T00:29:35;100265.31;;;24.99;93.28
30463;BME280;17256;43.618;25.336;2023-07-22T00:32:00;100206.41;;;24.33;99.08
30463;BME280;17256;43.618;25.336;2023-07-22T00:34:26;100349.75;;;25.27;100.00
30463;BME280;17256;43.618;25.336;2023-07-22T00:36:51;100280.75;;;24.35;100.00
30463;BME280;17256;43.618;25.336;2023-07-22T00:39:17;100212.59;;;24.06;100.00
30463;BME280;17256;43.618;25.336;2023-07-22T00:41:43;100272.25;;;24.40;100.00
30463;BME280;17256;43.618;25.336;2023-07-22T00:44:11;100350.38;;;24.81;100.00
30463;BME280;17256;43.618;25.336;2023-07-22T00:46:38;100314.03;;;24.66;100.00
30463;BME280;17256;43.618;25.336;2023-07-22T00:49:08;100249.19;;;24.43;100.00
30463;BME280;17256;43.618;25.336;2023-07-22T00:51:34;100254.56;;;24.64;100.00
30463;BME280;17256;43.618;25.336;2023-07-22T00:54:00;100322.47;;;25.27;100.00
30463;BME280;17256;43.618;25.336;2023-07-22T00:56:25;100199.38;;;24.54;100.00
30463;BME280;17256;43.618;25.336;2023-07-22T00:58:52;100338.97;;;25.53;100.00
30463;BME280;17256;43.618;25.336;2023-07-22T01:01:18;100215.78;;;24.66;100.00
30463;BME280;17256;43.618;25.336;2023-07-22T01:03:44;100378.13;;;25.68;100.00
30463;BME280;17256;43.618;25.336;2023-07-22T01:06:14;100259.06;;;24.83;100.00
30463;BME280;17256;43.618;25.336;2023-07-22T01:08:43;100205.44;;;24.42;100.00
30463;BME280;17256;43.618;25.336;2023-07-22T01:11:09;100248.25;;;24.72;100.00
30463;BME280;17256;43.618;25.336;2023-07-22T01:13:34;100211.19;;;24.32;100.00
30463;BME280;17256;43.618;25.336;2023-07-22T01:16:01;100335.28;;;24.96;100.00
30463;BME280;17256;43.618;25.336;2023-07-22T01:18:27;100223.53;;;24.31;100.00
30463;BME280;17256;43.618;25.336;2023-07-22T01:20:53;100193.53;;;24.03;100.00
30463;BME280;17256;43.618;25.336;2023-07-22T01:23:19;100319.94;;;24.88;100.00
30463;BME280;17256;43.618;25.336;2023-07-22T01:25:44;100274.50;;;24.62;100.00
30463;BME280;17256;43.618;25.336;2023-07-22T01:28:11;100260.97;;;24.45;100.00
30463;BME280;17256;43.618;25.336;2023-07-22T01:30:37;100129.00;;;23.60;100.00
30463;BME280;17256;43.618;25.336;2023-07-22T01:33:04;100180.19;;;23.94;100.00
30463;BME280;17256;43.618;25.336;2023-07-22T01:35:29;100220.22;;;24.24;100.00
30463;BME280;17256;43.618;25.336;2023-07-22T01:37:55;100265.50;;;24.41;100.00
30463;BME280;17256;43.618;25.336;2023-07-22T01:40:20;100185.31;;;23.87;100.00
30463;BME280;17256;43.618;25.336;2023-07-22T01:42:49;100181.38;;;23.88;100.00
30463;BME280;17256;43.618;25.336;2023-07-22T01:45:15;100188.72;;;23.84;100.00
30463;BME280;17256;43.618;25.336;2023-07-22T01:47:42;100157.44;;;23.72;100.00
30463;BME280;17256;43.618;25.336;2023-07-22T01:50:08;100129.47;;;23.67;100.00
30463;BME280;17256;43.618;25.336;2023-07-22T01:52:35;100186.00;;;23.98;100.00
30463;BME280;17256;43.618;25.336;2023-07-22T01:55:01;100243.44;;;24.06;100.00
30463;BME280;17256;43.618;25.336;2023-07-22T01:57:35;100300.16;;;24.27;100.00
30463;BME280;17256;43.618;25.336;2023-07-22T02:00:02;100220.19;;;23.76;100.00
30463;BME280;17256;43.618;25.336;2023-07-22T02:02:38;100237.31;;;23.75;100.00
30463;BME280;17256;43.618;25.336;2023-07-22T02:05:05;100275.13;;;23.77;100.00
30463;BME280;17256;43.618;25.336;2023-07-22T02:07:31;100215.50;;;23.38;100.00
30463;BME280;17256;43.618;25.336;2023-07-22T02:09:57;100302.00;;;23.83;100.00
30463;BME280;17256;43.618;25.336;2023-07-22T02:12:23;100424.75;;;24.25;100.00
30463;BME280;17256;43.618;25.336;2023-07-22T02:14:49;100434.19;;;24.40;100.00
30463;BME280;17256;43.618;25.336;2023-07-22T02:17:15;100302.19;;;23.63;100.00
30463;BME280;17256;43.618;25.336;2023-07-22T02:19:41;100265.25;;;23.51;100.00
30463;BME280;17256;43.618;25.336;2023-07-22T02:22:07;100218.06;;;23.29;100.00
30463;BME280;17256;43.618;25.336;2023-07-22T02:24:32;100214.72;;;23.27;100.00
30463;BME280;17256;43.618;25.336;2023-07-22T02:27:00;100381.47;;;24.37;100.00
30463;BME280;17256;43.618;25.336;2023-07-22T02:29:27;100332.56;;;24.14;100.00
30463;BME280;17256;43.618;25.336;2023-07-22T02:31:52;100162.13;;;23.19;100.00
30463;BME280;17256;43.618;25.336;2023-07-22T02:34:18;100241.66;;;23.62;100.00
30463;BME280;17256;43.618;25.336;2023-07-22T02:36:44;100234.75;;;23.44;100.00
30463;BME280;17256;43.618;25.336;2023-07-22T02:39:09;100236.78;;;23.39;100.00
30463;BME280;17256;43.618;25.336;2023-07-22T02:41:38;100325.00;;;23.85;100.00
30463;BME280;17256;43.618;25.336;2023-07-22T02:44:03;100393.47;;;24.42;100.00
30463;BME280;17256;43.618;25.336;2023-07-22T02:46:29;100154.78;;;22.94;100.00
30463;BME280;17256;43.618;25.336;2023-07-22T02:48:55;100203.38;;;23.13;100.00
30463;BME280;17256;43.618;25.336;2023-07-22T02:51:21;100173.81;;;22.97;100.00
30463;BME280;17256;43.618;25.336;2023-07-22T02:53:46;100250.78;;;23.39;100.00
30463;BME280;17256;43.618;25.336;2023-07-22T02:56:13;100262.47;;;23.56;100.00
30463;BME280;17256;43.618;25.336;2023-07-22T02:58:38;100373.03;;;24.08;100.00
30463;BME280;17256;43.618;25.336;2023-07-22T03:01:05;100221.84;;;23.14;100.00
30463;BME280;17256;43.618;25.336;2023-07-22T03:03:34;100246.38;;;23.27;100.00
30463;BME280;17256;43.618;25.336;2023-07-22T03:06:01;100199.28;;;22.95;100.00
30463;BME280;17256;43.618;25.336;2023-07-22T03:08:27;100327.31;;;23.73;100.00
30463;BME280;17256;43.618;25.336;2023-07-22T03:10:52;100264.84;;;23.33;100.00
30463;BME280;17256;43.618;25.336;2023-07-22T03:13:18;100349.88;;;23.92;100.00
30463;BME280;17256;43.618;25.336;2023-07-22T03:15:44;100230.13;;;23.29;100.00
30463;BME280;17256;43.618;25.336;2023-07-22T03:18:10;100265.94;;;23.38;100.00
30463;BME280;17256;43.618;25.336;2023-07-22T03:20:37;100304.41;;;23.66;100.00
30463;BME280;17256;43.618;25.336;2023-07-22T03:23:04;100299.34;;;23.68;100.00
30463;BME280;17256;43.618;25.336;2023-07-22T03:25:30;100260.78;;;23.50;100.00
30463;BME280;17256;43.618;25.336;2023-07-22T03:27:56;100207.84;;;23.14;100.00
30463;BME280;17256;43.618;25.336;2023-07-22T03:30:22;100296.16;;;23.80;100.00
30463;BME280;17256;43.618;25.336;2023-07-22T03:32:48;100427.19;;;24.66;100.00
30463;BME280;17256;43.618;25.336;2023-07-22T03:35:19;100188.97;;;23.25;100.00
30463;BME280;17256;43.618;25.336;2023-07-22T03:37:44;100263.38;;;23.75;100.00
30463;BME280;17256;43.618;25.336;2023-07-22T03:40:10;100237.84;;;23.77;100.00
30463;BME280;17256;43.618;25.336;2023-07-22T03:42:54;100422.06;;;24.97;100.00
30463;BME280;17256;43.618;25.336;2023-07-22T03:45:21;100426.25;;;25.24;100.00
30463;BME280;17256;43.618;25.336;2023-07-22T03:47:51;100327.28;;;24.84;100.00
30463;BME280;17256;43.618;25.336;2023-07-22T03:50:16;100253.00;;;24.52;100.00
30463;BME280;17256;43.618;25.336;2023-07-22T03:52:42;100362.91;;;25.12;100.00
30463;BME280;17256;43.618;25.336;2023-07-22T03:55:08;100307.00;;;25.11;100.00
30463;BME280;17256;43.618;25.336;2023-07-22T03:57:38;100262.22;;;24.96;100.00
30463;BME280;17256;43.618;25.336;2023-07-22T04:00:05;100324.25;;;25.42;100.00
30463;BME280;17256;43.618;25.336;2023-07-22T04:02:38;100306.22;;;25.43;100.00
30463;BME280;17256;43.618;25.336;2023-07-22T04:05:04;100253.19;;;25.04;100.00
30463;BME280;17256;43.618;25.336;2023-07-22T04:07:31;100237.47;;;24.60;100.00
30463;BME280;17256;43.618;25.336;2023-07-22T04:09:58;100267.06;;;24.71;100.00
30463;BME280;17256;43.618;25.336;2023-07-22T04:12:23;100215.88;;;24.13;100.00
30463;BME280;17256;43.618;25.336;2023-07-22T04:14:49;100338.56;;;25.03;100.00
30463;BME280;17256;43.618;25.336;2023-07-22T04:17:15;100297.31;;;24.98;100.00
30463;BME280;17256;43.618;25.336;2023-07-22T04:19:41;100261.66;;;25.18;100.00
30463;BME280;17256;43.618;25.336;2023-07-22T04:22:07;100268.59;;;25.06;100.00
30463;BME280;17256;43.618;25.336;2023-07-22T04:24:33;100321.72;;;25.22;100.00
30463;BME280;17256;43.618;25.336;2023-07-22T04:27:01;100300.69;;;25.19;100.00
30463;BME280;17256;43.618;25.336;2023-07-22T04:29:27;100263.03;;;25.20;100.00
30463;BME280;17256;43.618;25.336;2023-07-22T04:31:59;100238.59;;;25.53;100.00
30463;BME280;17256;43.618;25.336;2023-07-22T04:34:29;100238.09;;;25.84;100.00
30463;BME280;17256;43.618;25.336;2023-07-22T04:36:55;100334.00;;;26.61;100.00
30463;BME280;17256;43.618;25.336;2023-07-22T04:39:24;100240.00;;;26.16;98.72
30463;BME280;17256;43.618;25.336;2023-07-22T04:41:50;100283.81;;;26.63;98.82
30463;BME280;17256;43.618;25.336;2023-07-22T04:44:18;100316.34;;;26.69;99.50
30463;BME280;17256;43.618;25.336;2023-07-22T04:46:44;100322.50;;;26.71;99.11
30463;BME280;17256;43.618;25.336;2023-07-22T04:49:11;100283.63;;;25.99;100.00
30463;BME280;17256;43.618;25.336;2023-07-22T04:51:37;100217.41;;;25.09;100.00
30463;BME280;17256;43.618;25.336;2023-07-22T04:54:03;100230.56;;;25.28;100.00
30463;BME280;17256;43.618;25.336;2023-07-22T04:56:29;100268.75;;;25.48;100.00
30463;BME280;17256;43.618;25.336;2023-07-22T04:58:54;100244.09;;;25.26;100.00
30463;BME280;17256;43.618;25.336;2023-07-22T05:01:20;100240.31;;;25.17;100.00
30463;BME280;17256;43.618;25.336;2023-07-22T05:03:45;100287.84;;;25.69;100.00
30463;BME280;17256;43.618;25.336;2023-07-22T05:06:11;100448.97;;;26.86;100.00
30463;BME280;17256;43.618;25.336;2023-07-22T05:08:38;100246.63;;;25.79;100.00
30463;BME280;17256;43.618;25.336;2023-07-22T05:11:04;100235.47;;;26.01;100.00
30463;BME280;17256;43.618;25.336;2023-07-22T05:13:29;100231.13;;;26.22;100.00
30463;BME280;17256;43.618;25.336;2023-07-22T05:15:55;100352.22;;;26.91;100.00
30463;BME280;17256;43.618;25.336;2023-07-22T05:18:21;100255.94;;;26.75;100.00
30463;BME280;17256;43.618;25.336;2023-07-22T05:20:46;100373.75;;;27.64;96.94
30463;BME280;17256;43.618;25.336;2023-07-22T05:23:12;100271.69;;;27.04;96.85
30463;BME280;17256;43.618;25.336;2023-07-22T05:25:37;100391.25;;;27.75;98.65
30463;BME280;17256;43.618;25.336;2023-07-22T05:28:03;100370.31;;;27.89;95.68
30463;BME280;17256;43.618;25.336;2023-07-22T05:30:29;100274.50;;;27.26;94.80
30463;BME280;17256;43.618;25.336;2023-07-22T05:32:54;100339.81;;;28.00;96.75
30463;BME280;17256;43.618;25.336;2023-07-22T05:35:20;100217.25;;;27.39;91.89
30463;BME280;17256;43.618;25.336;2023-07-22T05:37:45;100308.16;;;27.81;92.79
30463;BME280;17256;43.618;25.336;2023-07-22T05:40:11;100387.06;;;28.62;90.59
30463;BME280;17256;43.618;25.336;2023-07-22T05:42:37;100343.84;;;28.61;90.63
30463;BME280;17256;43.618;25.336;2023-07-22T05:45:03;100477.31;;;29.29;87.19
30463;BME280;17256;43.618;25.336;2023-07-22T05:47:28;100467.31;;;29.23;87.46
30463;BME280;17256;43.618;25.336;2023-07-22T05:49:54;100444.88;;;29.26;89.37
30463;BME280;17256;43.618;25.336;2023-07-22T05:52:20;100293.06;;;28.78;84.84
30463;BME280;17256;43.618;25.336;2023-07-22T05:54:46;100422.38;;;29.78;80.25
30463;BME280;17256;43.618;25.336;2023-07-22T05:57:11;100386.06;;;28.97;82.50
30463;BME280;17256;43.618;25.336;2023-07-22T05:59:39;100492.13;;;29.26;86.35
30463;BME280;17256;43.618;25.336;2023-07-22T06:02:13;100305.19;;;28.08;85.52
30463;BME280;17256;43.618;25.336;2023-07-22T06:04:39;100250.59;;;27.82;86.55
30463;BME280;17256;43.618;25.336;2023-07-22T06:07:05;100336.28;;;28.39;85.90
30463;BME280;17256;43.618;25.336;2023-07-22T06:09:30;100378.25;;;28.63;86.69
30463;BME280;17256;43.618;25.336;2023-07-22T06:11:56;100373.28;;;29.08;84.98
30463;BME280;17256;43.618;25.336;2023-07-22T06:14:21;100343.56;;;29.28;79.14
30463;BME280;17256;43.618;25.336;2023-07-22T06:16:47;100363.41;;;29.63;78.78
30463;BME280;17256;43.618;25.336;2023-07-22T06:19:12;100440.13;;;30.48;78.56
30463;BME280;17256;43.618;25.336;2023-07-22T06:21:38;100429.47;;;30.45;76.33
30463;BME280;17256;43.618;25.336;2023-07-22T06:24:04;100363.66;;;30.39;74.03
30463;BME280;17256;43.618;25.336;2023-07-22T06:26:30;100443.81;;;31.42;72.47
30463;BME280;17256;43.618;25.336;2023-07-22T06:28:55;100478.81;;;31.84;70.02
30463;BME280;17256;43.618;25.336;2023-07-22T06:31:21;100470.22;;;31.63;68.34
30463;BME280;17256;43.618;25.336;2023-07-22T06:33:46;100452.84;;;31.65;70.74
30463;BME280;17256;43.618;25.336;2023-07-22T06:36:12;100457.97;;;31.80;67.85
30463;BME280;17256;43.618;25.336;2023-07-22T06:38:38;100478.25;;;32.11;67.23
30463;BME280;17256;43.618;25.336;2023-07-22T06:41:03;100419.66;;;32.07;66.66
30463;BME280;17256;43.618;25.336;2023-07-22T06:43:29;100454.09;;;32.26;64.13
30463;BME280;17256;43.618;25.336;2023-07-22T06:45:54;100471.53;;;32.16;64.62
30463;BME280;17256;43.618;25.336;2023-07-22T06:48:20;100480.53;;;32.18;66.04
30463;BME280;17256;43.618;25.336;2023-07-22T06:50:53;100481.16;;;32.24;65.46
30463;BME280;17256;43.618;25.336;2023-07-22T06:53:23;100476.84;;;33.04;64.21
30463;BME280;17256;43.618;25.336;2023-07-22T06:55:52;100497.94;;;33.16;61.94
30463;BME280;17256;43.618;25.336;2023-07-22T06:58:19;100501.03;;;33.11;61.53
30463;BME280;17256;43.618;25.336;2023-07-22T07:00:45;100473.88;;;33.01;61.79
30463;BME280;17256;43.618;25.336;2023-07-22T07:03:11;100489.47;;;32.83;60.37
30463;BME280;17256;43.618;25.336;2023-07-22T07:05:36;100495.16;;;32.83;60.70
30463;BME280;17256;43.618;25.336;2023-07-22T07:08:02;100481.69;;;32.71;62.57
30463;BME280;17256;43.618;25.336;2023-07-22T07:10:29;100437.69;;;32.89;62.09
30463;BME280;17256;43.618;25.336;2023-07-22T07:12:54;100445.75;;;32.87;58.95
30463;BME280;17256;43.618;25.336;2023-07-22T07:15:20;100472.69;;;33.02;58.22
30463;BME280;17256;43.618;25.336;2023-07-22T07:17:45;100303.22;;;31.86;58.25
30463;BME280;17256;43.618;25.336;2023-07-22T07:20:13;100461.75;;;32.80;58.45
30463;BME280;17256;43.618;25.336;2023-07-22T07:22:39;100435.81;;;32.81;59.88
30463;BME280;17256;43.618;25.336;2023-07-22T07:25:05;100438.19;;;32.58;58.96
30463;BME280;17256;43.618;25.336;2023-07-22T07:27:30;100466.72;;;32.95;57.74
30463;BME280;17256;43.618;25.336;2023-07-22T07:29:56;100465.56;;;33.20;56.96
30463;BME280;17256;43.618;25.336;2023-07-22T07:32:22;100471.00;;;32.89;56.12
30463;BME280;17256;43.618;25.336;2023-07-22T07:34:49;100495.84;;;33.37;56.86
30463;BME280;17256;43.618;25.336;2023-07-22T07:37:14;100443.19;;;33.07;55.92
30463;BME280;17256;43.618;25.336;2023-07-22T07:39:40;100443.16;;;33.19;56.65
30463;BME280;17256;43.618;25.336;2023-07-22T07:42:06;100472.59;;;33.84;54.96
30463;BME280;17256;43.618;25.336;2023-07-22T07:44:31;100448.88;;;33.55;55.41
30463;BME280;17256;43.618;25.336;2023-07-22T07:46:57;100439.50;;;33.06;54.88
30463;BME280;17256;43.618;25.336;2023-07-22T07:49:22;100403.63;;;32.68;54.66
30463;BME280;17256;43.618;25.336;2023-07-22T07:51:48;100433.44;;;33.20;54.95
30463;BME280;17256;43.618;25.336;2023-07-22T07:54:13;100425.75;;;33.45;53.63
30463;BME280;17256;43.618;25.336;2023-07-22T07:56:40;100436.53;;;33.63;53.41
30463;BME280;17256;43.618;25.336;2023-07-22T07:59:05;100382.47;;;33.39;52.13
30463;BME280;17256;43.618;25.336;2023-07-22T08:01:34;100396.91;;;33.58;53.08
30463;BME280;17256;43.618;25.336;2023-07-22T08:04:00;100379.09;;;33.74;50.62
30463;BME280;17256;43.618;25.336;2023-07-22T08:06:26;100368.00;;;33.20;49.36
30463;BME280;17256;43.618;25.336;2023-07-22T08:08:52;100404.75;;;33.13;51.57
30463;BME280;17256;43.618;25.336;2023-07-22T08:11:17;100355.91;;;33.11;51.43
30463;BME280;17256;43.618;25.336;2023-07-22T08:13:44;100321.06;;;33.26;50.60
30463;BME280;17256;43.618;25.336;2023-07-22T08:16:11;100413.06;;;34.35;49.63
30463;BME280;17256;43.618;25.336;2023-07-22T08:18:37;100428.16;;;34.35;47.22
30463;BME280;17256;43.618;25.336;2023-07-22T08:21:04;100380.75;;;33.75;47.77
30463;BME280;17256;43.618;25.336;2023-07-22T08:23:32;100409.25;;;33.62;46.73
30463;BME280;17256;43.618;25.336;2023-07-22T08:25:58;100408.50;;;33.65;47.19
30463;BME280;17256;43.618;25.336;2023-07-22T08:28:23;100432.38;;;34.13;45.87
30463;BME280;17256;43.618;25.336;2023-07-22T08:30:49;100426.97;;;34.36;47.06
30463;BME280;17256;43.618;25.336;2023-07-22T08:33:15;100370.81;;;34.24;47.42
30463;BME280;17256;43.618;25.336;2023-07-22T08:35:41;100390.22;;;34.47;46.55
30463;BME280;17256;43.618;25.336;2023-07-22T08:38:07;100420.94;;;34.69;47.54
30463;BME280;17256;43.618;25.336;2023-07-22T08:40:38;100429.94;;;34.99;47.73
30463;BME280;17256;43.618;25.336;2023-07-22T08:43:05;100425.38;;;34.82;47.27
30463;BME280;17256;43.618;25.336;2023-07-22T08:45:32;100437.16;;;34.81;47.33
30463;BME280;17256;43.618;25.336;2023-07-22T08:48:02;100392.06;;;34.27;46.48
30463;BME280;17256;43.618;25.336;2023-07-22T08:50:30;100435.19;;;34.53;46.91
30463;BME280;17256;43.618;25.336;2023-07-22T08:53:00;100418.09;;;34.69;47.96
30463;BME280;17256;43.618;25.336;2023-07-22T08:55:26;100450.47;;;35.21;46.34
30463;BME280;17256;43.618;25.336;2023-07-22T08:57:53;100453.31;;;35.36;46.93
30463;BME280;17256;43.618;25.336;2023-07-22T09:00:20;100412.22;;;34.78;46.67
30463;BME280;17256;43.618;25.336;2023-07-22T09:02:46;100408.47;;;35.05;49.00
30463;BME280;17256;43.618;25.336;2023-07-22T09:05:11;100428.72;;;35.00;46.64
30463;BME280;17256;43.618;25.336;2023-07-22T09:07:37;100444.63;;;34.85;46.00
30463;BME280;17256;43.618;25.336;2023-07-22T09:10:08;100448.69;;;35.16;45.98
30463;BME280;17256;43.618;25.336;2023-07-22T09:12:34;100455.41;;;35.08;46.33
30463;BME280;17256;43.618;25.336;2023-07-22T09:15:14;100444.34;;;34.91;47.33
30463;BME280;17256;43.618;25.336;2023-07-22T09:21:35;100444.25;;;34.71;48.25
30463;BME280;17256;43.618;25.336;2023-07-22T09:24:20;100418.28;;;34.61;47.02
30463;BME280;17256;43.618;25.336;2023-07-22T09:26:47;100434.50;;;34.44;46.68
30463;BME280;17256;43.618;25.336;2023-07-22T09:29:12;100435.28;;;34.29;46.76
30463;BME280;17256;43.618;25.336;2023-07-22T09:31:49;100435.19;;;34.53;47.69
30463;BME280;17256;43.618;25.336;2023-07-22T09:34:15;100366.50;;;34.31;47.58
30463;BME280;17256;43.618;25.336;2023-07-22T09:36:55;100426.91;;;34.64;48.25
30463;BME280;17256;43.618;25.336;2023-07-22T09:39:21;100426.91;;;34.64;47.80
30463;BME280;17256;43.618;25.336;2023-07-22T09:41:48;100441.31;;;35.15;48.32
30463;BME280;17256;43.618;25.336;2023-07-22T09:44:13;100382.69;;;34.70;46.59
30463;BME280;17256;43.618;25.336;2023-07-22T09:46:39;100404.66;;;35.17;47.99
30463;BME280;17256;43.618;25.336;2023-07-22T09:49:07;100432.03;;;35.34;47.98
30463;BME280;17256;43.618;25.336;2023-07-22T09:51:34;100405.97;;;35.35;46.73
30463;BME280;17256;43.618;25.336;2023-07-22T09:54:01;100411.31;;;35.21;46.75
30463;BME280;17256;43.618;25.336;2023-07-22T09:56:27;100378.72;;;35.06;46.92
30463;BME280;17256;43.618;25.336;2023-07-22T09:58:53;100407.97;;;35.19;47.28
30463;BME280;17256;43.618;25.336;2023-07-22T10:01:20;100371.28;;;35.02;47.21
30463;BME280;17256;43.618;25.336;2023-07-22T10:03:55;100375.44;;;34.89;48.21
30463;BME280;17256;43.618;25.336;2023-07-22T10:06:29;100360.22;;;34.69;47.63
30463;BME280;17256;43.618;25.336;2023-07-22T10:08:56;100409.91;;;34.83;46.72
30463;BME280;17256;43.618;25.336;2023-07-22T10:11:27;100438.09;;;35.16;46.90
30463;BME280;17256;43.618;25.336;2023-07-22T10:13:53;100441.28;;;34.83;46.60
30463;BME280;17256;43.618;25.336;2023-07-22T10:16:20;100401.09;;;34.73;47.48
30463;BME280;17256;43.618;25.336;2023-07-22T10:18:46;100343.91;;;34.38;45.83
30463;BME280;17256;43.618;25.336;2023-07-22T10:21:13;100417.75;;;34.87;45.32
30463;BME280;17256;43.618;25.336;2023-07-22T10:23:40;100432.38;;;35.16;45.39
30463;BME280;17256;43.618;25.336;2023-07-22T10:26:12;100385.56;;;35.02;45.82
30463;BME280;17256;43.618;25.336;2023-07-22T10:28:40;100404.03;;;34.92;44.27
30463;BME280;17256;43.618;25.336;2023-07-22T10:31:07;100399.91;;;34.90;44.13
30463;BME280;17256;43.618;25.336;2023-07-22T10:33:34;100433.22;;;35.17;45.20
30463;BME280;17256;43.618;25.336;2023-07-22T10:36:06;100442.03;;;34.80;46.22
30463;BME280;17256;43.618;25.336;2023-07-22T10:38:33;100438.53;;;34.71;45.12
30463;BME280;17256;43.618;25.336;2023-07-22T10:40:59;100422.06;;;34.80;45.02
30463;BME280;17256;43.618;25.336;2023-07-22T10:43:29;100428.13;;;34.79;44.62
30463;BME280;17256;43.618;25.336;2023-07-22T10:45:57;100413.19;;;34.70;45.52
30463;BME280;17256;43.618;25.336;2023-07-22T10:48:26;100439.88;;;35.05;45.52
30463;BME280;17256;43.618;25.336;2023-07-22T10:50:58;100443.06;;;34.88;45.33
30463;BME280;17256;43.618;25.336;2023-07-22T10:53:30;100429.56;;;35.01;45.39
30463;BME280;17256;43.618;25.336;2023-07-22T11:11:53;100434.63;;;35.23;45.95
30463;BME280;17256;43.618;25.336;2023-07-22T11:14:30;100428.63;;;35.79;45.72
30463;BME280;17256;43.618;25.336;2023-07-22T11:17:01;100338.91;;;35.29;45.36
30463;BME280;17256;43.618;25.336;2023-07-22T11:19:29;100427.50;;;35.84;44.45
30463;BME280;17256;43.618;25.336;2023-07-22T11:21:55;100413.25;;;35.68;44.41
30463;BME280;17256;43.618;25.336;2023-07-22T11:24:23;100417.38;;;35.86;43.30
30463;BME280;17256;43.618;25.336;2023-07-22T11:26:49;100369.63;;;35.87;42.83
30463;BME280;17256;43.618;25.336;2023-07-22T11:29:15;100413.22;;;36.42;43.33
30463;BME280;17256;43.618;25.336;2023-07-22T11:31:44;100378.19;;;35.87;43.44
30463;BME280;17256;43.618;25.336;2023-07-22T11:34:11;100415.50;;;36.32;46.28
30463;BME280;17256;43.618;25.336;2023-07-22T11:36:37;100410.00;;;36.24;44.37
30463;BME280;17256;43.618;25.336;2023-07-22T11:39:08;100351.31;;;35.53;44.08
30463;BME280;17256;43.618;25.336;2023-07-22T11:41:34;100371.03;;;35.77;45.28
30463;BME280;17256;43.618;25.336;2023-07-22T11:44:01;100411.88;;;36.16;44.00
30463;BME280;17256;43.618;25.336;2023-07-22T11:46:28;100377.16;;;35.95;43.93
30463;BME280;17256;43.618;25.336;2023-07-22T11:48:54;100400.28;;;35.90;44.19
30463;BME280;17256;43.618;25.336;2023-07-22T11:51:22;100389.34;;;35.57;44.28
30463;BME280;17256;43.618;25.336;2023-07-22T11:53:52;100353.56;;;35.28;46.64
30463;BME280;17256;43.618;25.336;2023-07-22T11:56:32;100322.69;;;34.98;44.53
30463;BME280;17256;43.618;25.336;2023-07-22T11:58:57;100327.59;;;35.17;44.09
30463;BME280;17256;43.618;25.336;2023-07-22T12:01:23;100353.72;;;35.51;43.68
30463;BME280;17256;43.618;25.336;2023-07-22T12:03:49;100345.38;;;35.81;43.49
30463;BME280;17256;43.618;25.336;2023-07-22T12:06:24;100396.34;;;35.79;44.25
30463;BME280;17256;43.618;25.336;2023-07-22T12:08:51;100393.31;;;35.87;44.01
30463;BME280;17256;43.618;25.336;2023-07-22T12:11:23;100373.91;;;35.96;44.37
30463;BME280;17256;43.618;25.336;2023-07-22T12:14:10;100369.31;;;35.92;43.21
30463;BME280;17256;43.618;25.336;2023-07-22T12:16:38;100400.75;;;36.11;44.50
30463;BME280;17256;43.618;25.336;2023-07-22T12:19:04;100372.09;;;36.08;44.22
30463;BME280;17256;43.618;25.336;2023-07-22T12:21:30;100391.72;;;36.28;44.37
30463;BME280;17256;43.618;25.336;2023-07-22T12:23:56;100384.56;;;36.38;43.50
30463;BME280;17256;43.618;25.336;2023-07-22T12:26:22;100370.59;;;36.33;44.19
30463;BME280;17256;43.618;25.336;2023-07-22T12:28:48;100338.69;;;36.31;42.97
30463;BME280;17256;43.618;25.336;2023-07-22T12:31:13;100301.88;;;35.87;43.77
30463;BME280;17256;43.618;25.336;2023-07-22T12:33:39;100353.13;;;36.19;43.25
30463;BME280;17256;43.618;25.336;2023-07-22T12:36:04;100374.94;;;36.08;43.64
30463;BME280;17256;43.618;25.336;2023-07-22T12:38:31;100358.31;;;35.74;43.24
30463;BME280;17256;43.618;25.336;2023-07-22T12:40:56;100384.94;;;36.17;43.50
30463;BME280;17256;43.618;25.336;2023-07-22T12:43:22;100332.06;;;36.08;44.02
30463;BME280;17256;43.618;25.336;2023-07-22T12:45:48;100346.13;;;36.16;44.84
30463;BME280;17256;43.618;25.336;2023-07-22T12:48:13;100378.03;;;36.38;43.89
30463;BME280;17256;43.618;25.336;2023-07-22T12:50:39;100359.88;;;36.30;43.70
30463;BME280;17256;43.618;25.336;2023-07-22T12:53:04;100283.59;;;35.53;44.74